createdAt,value
2019-01-24T00:00:39.276Z,1003.85
2019-01-24T00:01:19.824Z,1003.87
2019-01-24T00:02:00.381Z,1003.89
2019-01-24T00:02:40.934Z,1003.88
2019-01-24T00:03:21.495Z,1003.85
2019-01-24T00:04:02.058Z,1003.92
2019-01-24T00:04:42.622Z,1003.94
2019-01-24T00:05:23.197Z,1003.87
2019-01-24T00:06:03.763Z,1003.9
2019-01-24T00:06:44.323Z,1003.91
2019-01-24T00:07:24.888Z,1003.92
2019-01-24T00:08:05.424Z,1003.89
2019-01-24T00:08:45.992Z,1003.95
2019-01-24T00:09:26.560Z,1003.96
2019-01-24T00:10:07.114Z,1003.95
2019-01-24T00:10:47.689Z,1003.92
2019-01-24T00:11:28.251Z,1003.89
2019-01-24T00:12:08.839Z,1003.9
2019-01-24T00:12:49.378Z,1003.97
2019-01-24T00:13:29.946Z,1003.93
2019-01-24T00:14:10.512Z,1003.93
2019-01-24T00:14:51.060Z,1003.97
2019-01-24T00:15:31.642Z,1003.97
2019-01-24T00:16:12.215Z,1003.93
2019-01-24T00:16:52.757Z,1003.96
2019-01-24T00:17:33.322Z,1003.98
2019-01-24T00:18:13.933Z,1003.93
2019-01-24T00:18:54.470Z,1004
2019-01-24T00:19:35.032Z,1004.01
2019-01-24T00:20:15.588Z,1004.01
2019-01-24T00:20:56.151Z,1004.06
2019-01-24T00:21:36.710Z,1004.01
2019-01-24T00:22:17.262Z,1004.04
2019-01-24T00:22:57.999Z,1004.03
2019-01-24T00:23:38.558Z,1004.03
2019-01-24T00:24:19.108Z,1004.03
2019-01-24T00:24:59.664Z,1004.05
2019-01-24T00:25:40.215Z,1004.02
2019-01-24T00:26:20.808Z,1004.02
2019-01-24T00:27:01.354Z,1004.02
2019-01-24T00:27:41.936Z,1004.02
2019-01-24T00:28:22.493Z,1004.01
2019-01-24T00:29:03.074Z,1004
2019-01-24T00:29:43.629Z,1003.99
2019-01-24T00:30:24.183Z,1004.07
2019-01-24T00:31:04.742Z,1004.02
2019-01-24T00:31:45.310Z,1004.03
2019-01-24T00:32:25.874Z,1004.01
2019-01-24T00:33:06.413Z,1003.98
2019-01-24T00:33:46.979Z,1004.01
2019-01-24T00:34:27.546Z,1004.05
2019-01-24T00:35:08.089Z,1004.05
2019-01-24T00:35:48.647Z,1004.03
2019-01-24T00:36:29.203Z,1004.07
2019-01-24T00:37:09.761Z,1004.1
2019-01-24T00:37:50.327Z,1004.02
2019-01-24T00:38:30.905Z,1004.09
2019-01-24T00:39:11.465Z,1004.06
2019-01-24T00:39:52.031Z,1004.06
2019-01-24T00:40:32.593Z,1004.05
2019-01-24T00:41:13.187Z,1004.09
2019-01-24T00:41:53.740Z,1004.08
2019-01-24T00:42:34.310Z,1004.08
2019-01-24T00:43:14.900Z,1004.14
2019-01-24T00:43:55.451Z,1004.12
2019-01-24T00:44:36.011Z,1004.16
2019-01-24T00:45:16.579Z,1004.15
2019-01-24T00:45:57.140Z,1004.13
2019-01-24T00:46:37.731Z,1004.19
2019-01-24T00:47:18.279Z,1004.2
2019-01-24T00:47:58.815Z,1004.19
2019-01-24T00:48:39.369Z,1004.22
2019-01-24T00:49:19.957Z,1004.26
2019-01-24T00:50:00.511Z,1004.25
2019-01-24T00:50:41.072Z,1004.25
2019-01-24T00:51:21.653Z,1004.2
2019-01-24T00:52:02.205Z,1004.19
2019-01-24T00:52:42.756Z,1004.16
2019-01-24T00:53:23.301Z,1004.14
2019-01-24T00:54:03.857Z,1004.23
2019-01-24T00:54:44.416Z,1004.19
2019-01-24T00:55:24.990Z,1004.17
2019-01-24T00:56:05.531Z,1004.23
2019-01-24T00:56:46.101Z,1004.16
2019-01-24T00:57:26.666Z,1004.22
2019-01-24T00:58:07.288Z,1004.19
2019-01-24T00:58:47.837Z,1004.22
2019-01-24T00:59:28.391Z,1004.23
2019-01-24T01:00:08.940Z,1004.2
2019-01-24T01:00:49.528Z,1004.22
2019-01-24T01:01:30.081Z,1004.21
2019-01-24T01:02:10.629Z,1004.22
2019-01-24T01:04:29.503Z,1004.15
2019-01-24T01:05:03.969Z,1004.15
2019-01-24T01:05:44.533Z,1004.2
2019-01-24T01:06:25.090Z,1004.23
2019-01-24T01:07:05.655Z,1004.21
2019-01-24T01:07:46.222Z,1004.24
2019-01-24T01:08:26.770Z,1004.26
2019-01-24T01:09:07.318Z,1004.23
2019-01-24T01:09:47.874Z,1004.23
2019-01-24T01:10:28.473Z,1004.25
2019-01-24T01:11:09.026Z,1004.33
2019-01-24T01:11:49.587Z,1004.3
2019-01-24T01:12:30.130Z,1004.33
2019-01-24T01:13:10.679Z,1004.32
2019-01-24T01:13:51.239Z,1004.26
2019-01-24T01:14:31.793Z,1004.33
2019-01-24T01:15:12.344Z,1004.34
2019-01-24T01:15:52.902Z,1004.33
2019-01-24T01:16:33.439Z,1004.36
2019-01-24T01:17:14.018Z,1004.33
2019-01-24T01:17:54.581Z,1004.37
2019-01-24T01:18:35.162Z,1004.38
2019-01-24T01:19:15.710Z,1004.34
2019-01-24T01:19:56.267Z,1004.35
2019-01-24T01:20:36.812Z,1004.35
2019-01-24T01:21:17.347Z,1004.36
2019-01-24T01:21:57.899Z,1004.45
2019-01-24T01:22:38.700Z,1004.36
2019-01-24T01:23:19.256Z,1004.4
2019-01-24T01:23:59.813Z,1004.38
2019-01-24T01:24:40.383Z,1004.4
2019-01-24T01:25:20.947Z,1004.39
2019-01-24T01:26:01.498Z,1004.42
2019-01-24T01:26:42.059Z,1004.4
2019-01-24T01:27:22.618Z,1004.39
2019-01-24T01:28:03.170Z,1004.43
2019-01-24T01:28:43.732Z,1004.42
2019-01-24T01:29:24.280Z,1004.4
2019-01-24T01:30:04.849Z,1004.4
2019-01-24T01:30:45.401Z,1004.45
2019-01-24T01:33:59.271Z,1004.47
2019-01-24T01:34:39.813Z,1004.44
2019-01-24T01:35:20.406Z,1004.46
2019-01-24T01:36:00.966Z,1004.43
2019-01-24T01:36:41.523Z,1004.48
2019-01-24T01:37:22.084Z,1004.5
2019-01-24T01:38:02.631Z,1004.53
2019-01-24T01:38:43.209Z,1004.53
2019-01-24T01:39:23.768Z,1004.48
2019-01-24T01:40:04.323Z,1004.52
2019-01-24T01:40:44.912Z,1004.52
2019-01-24T01:41:25.454Z,1004.54
2019-01-24T01:42:06.005Z,1004.54
2019-01-24T01:42:46.573Z,1004.53
2019-01-24T01:43:27.131Z,1004.59
2019-01-24T01:44:07.668Z,1004.59
2019-01-24T01:44:48.240Z,1004.52
2019-01-24T01:45:28.861Z,1004.54
2019-01-24T01:46:09.410Z,1004.57
2019-01-24T01:46:49.994Z,1004.56
2019-01-24T01:47:30.551Z,1004.61
2019-01-24T01:48:11.100Z,1004.58
2019-01-24T01:48:51.646Z,1004.58
2019-01-24T01:49:32.262Z,1004.65
2019-01-24T01:50:12.813Z,1004.6
2019-01-24T01:50:53.434Z,1004.61
2019-01-24T01:51:33.973Z,1004.58
2019-01-24T01:52:14.536Z,1004.56
2019-01-24T01:52:55.085Z,1004.6
2019-01-24T01:53:35.631Z,1004.58
2019-01-24T01:54:16.206Z,1004.59
2019-01-24T01:54:56.772Z,1004.59
2019-01-24T01:55:37.354Z,1004.53
2019-01-24T01:56:17.916Z,1004.56
2019-01-24T01:56:58.475Z,1004.62
2019-01-24T01:57:39.068Z,1004.58
2019-01-24T01:58:19.603Z,1004.59
2019-01-24T01:59:00.170Z,1004.58
2019-01-24T01:59:40.710Z,1004.57
2019-01-24T02:00:21.277Z,1004.58
2019-01-24T02:01:01.841Z,1004.55
2019-01-24T02:01:42.402Z,1004.57
2019-01-24T02:02:23.003Z,1004.54
2019-01-24T02:03:03.555Z,1004.56
2019-01-24T02:03:44.112Z,1004.54
2019-01-24T02:04:24.658Z,1004.5
2019-01-24T02:05:05.215Z,1004.57
2019-01-24T02:05:45.756Z,1004.51
2019-01-24T02:06:26.307Z,1004.53
2019-01-24T02:07:06.881Z,1004.52
2019-01-24T02:07:47.426Z,1004.58
2019-01-24T02:08:28.020Z,1004.52
2019-01-24T02:09:08.571Z,1004.56
2019-01-24T02:09:49.119Z,1004.52
2019-01-24T02:10:29.703Z,1004.52
2019-01-24T02:11:10.252Z,1004.56
2019-01-24T02:11:50.797Z,1004.55
2019-01-24T02:12:31.403Z,1004.54
2019-01-24T02:13:11.941Z,1004.58
2019-01-24T02:13:52.493Z,1004.54
2019-01-24T02:14:33.048Z,1004.57
2019-01-24T02:15:13.597Z,1004.58
2019-01-24T02:15:54.147Z,1004.61
2019-01-24T02:16:34.712Z,1004.6
2019-01-24T02:17:15.288Z,1004.57
2019-01-24T02:17:55.857Z,1004.62
2019-01-24T02:18:36.400Z,1004.59
2019-01-24T02:19:16.961Z,1004.53
2019-01-24T02:19:57.502Z,1004.58
2019-01-24T02:20:38.055Z,1004.55
2019-01-24T02:21:18.637Z,1004.53
2019-01-24T02:21:59.216Z,1004.53
2019-01-24T02:22:39.778Z,1004.54
2019-01-24T02:23:20.319Z,1004.51
2019-01-24T02:24:00.884Z,1004.57
2019-01-24T02:24:41.420Z,1004.5
2019-01-24T02:25:22.002Z,1004.56
2019-01-24T02:26:02.627Z,1004.52
2019-01-24T02:26:43.210Z,1004.49
2019-01-24T02:27:23.777Z,1004.54
2019-01-24T02:28:04.350Z,1004.53
2019-01-24T02:28:44.894Z,1004.51
2019-01-24T02:29:25.504Z,1004.48
2019-01-24T02:30:06.058Z,1004.46
2019-01-24T02:30:46.608Z,1004.47
2019-01-24T02:31:27.162Z,1004.49
2019-01-24T02:32:07.705Z,1004.52
2019-01-24T02:32:48.263Z,1004.49
2019-01-24T02:33:28.817Z,1004.5
2019-01-24T02:34:09.383Z,1004.5
2019-01-24T02:34:50.017Z,1004.5
2019-01-24T02:35:30.564Z,1004.47
2019-01-24T02:36:11.110Z,1004.48
2019-01-24T02:36:51.666Z,1004.5
2019-01-24T02:37:32.219Z,1004.54
2019-01-24T02:38:12.803Z,1004.47
2019-01-24T02:38:53.344Z,1004.49
2019-01-24T02:39:33.905Z,1004.52
2019-01-24T02:40:14.486Z,1004.51
2019-01-24T02:40:55.032Z,1004.56
2019-01-24T02:41:35.627Z,1004.52
2019-01-24T02:42:16.177Z,1004.54
2019-01-24T02:42:56.743Z,1004.55
2019-01-24T02:43:37.293Z,1004.56
2019-01-24T02:44:17.893Z,1004.59
2019-01-24T02:44:58.461Z,1004.58
2019-01-24T02:45:39.028Z,1004.59
2019-01-24T02:46:19.601Z,1004.58
2019-01-24T02:47:00.224Z,1004.63
2019-01-24T02:47:40.772Z,1004.63
2019-01-24T02:48:21.316Z,1004.69
2019-01-24T02:49:01.885Z,1004.64
2019-01-24T02:49:42.431Z,1004.6
2019-01-24T02:50:22.991Z,1004.6
2019-01-24T02:51:03.537Z,1004.63
2019-01-24T02:51:44.134Z,1004.67
2019-01-24T02:52:24.708Z,1004.68
2019-01-24T02:53:05.253Z,1004.59
2019-01-24T02:53:45.838Z,1004.62
2019-01-24T02:54:26.408Z,1004.62
2019-01-24T02:55:07.002Z,1004.64
2019-01-24T02:55:47.570Z,1004.66
2019-01-24T02:56:28.112Z,1004.67
2019-01-24T02:57:08.686Z,1004.67
2019-01-24T02:57:49.235Z,1004.7
2019-01-24T02:58:29.789Z,1004.68
2019-01-24T02:59:10.354Z,1004.7
2019-01-24T02:59:50.913Z,1004.66
2019-01-24T03:00:31.490Z,1004.68
2019-01-24T03:01:12.034Z,1004.68
2019-01-24T03:01:52.590Z,1004.7
2019-01-24T03:02:33.139Z,1004.7
2019-01-24T03:03:13.692Z,1004.71
2019-01-24T03:03:54.242Z,1004.7
2019-01-24T03:04:34.807Z,1004.65
2019-01-24T03:05:15.371Z,1004.68
2019-01-24T03:05:55.945Z,1004.71
2019-01-24T03:06:36.499Z,1004.64
2019-01-24T03:07:17.057Z,1004.7
2019-01-24T03:07:57.616Z,1004.7
2019-01-24T03:08:38.167Z,1004.69
2019-01-24T03:09:18.728Z,1004.69
2019-01-24T03:09:59.294Z,1004.75
2019-01-24T03:10:39.844Z,1004.63
2019-01-24T03:11:20.404Z,1004.66
2019-01-24T03:12:00.937Z,1004.71
2019-01-24T03:12:41.511Z,1004.67
2019-01-24T03:13:22.043Z,1004.66
2019-01-24T03:14:02.594Z,1004.66
2019-01-24T03:14:43.173Z,1004.63
2019-01-24T03:15:23.720Z,1004.68
2019-01-24T03:16:04.269Z,1004.66
2019-01-24T03:16:44.820Z,1004.68
2019-01-24T03:17:25.381Z,1004.65
2019-01-24T03:18:05.923Z,1004.68
2019-01-24T03:18:46.476Z,1004.62
2019-01-24T03:19:27.028Z,1004.64
2019-01-24T03:20:07.574Z,1004.66
2019-01-24T03:20:48.126Z,1004.63
2019-01-24T03:21:28.675Z,1004.62
2019-01-24T03:22:09.228Z,1004.63
2019-01-24T03:22:50.051Z,1004.67
2019-01-24T03:23:30.633Z,1004.66
2019-01-24T03:24:11.199Z,1004.69
2019-01-24T03:24:51.750Z,1004.68
2019-01-24T03:25:32.322Z,1004.64
2019-01-24T03:26:12.855Z,1004.66
2019-01-24T03:26:53.426Z,1004.7
2019-01-24T03:27:33.954Z,1004.67
2019-01-24T03:28:14.532Z,1004.69
2019-01-24T03:28:55.078Z,1004.69
2019-01-24T03:29:35.640Z,1004.72
2019-01-24T03:30:16.184Z,1004.74
2019-01-24T03:30:56.752Z,1004.75
2019-01-24T03:31:37.348Z,1004.74
2019-01-24T03:32:17.890Z,1004.72
2019-01-24T03:32:58.439Z,1004.73
2019-01-24T03:33:38.974Z,1004.72
2019-01-24T03:34:19.540Z,1004.75
2019-01-24T03:35:04.015Z,1004.74
2019-01-24T03:35:40.649Z,1004.8
2019-01-24T03:36:21.203Z,1004.73
2019-01-24T03:37:01.760Z,1004.72
2019-01-24T03:37:42.309Z,1004.76
2019-01-24T03:38:22.854Z,1004.75
2019-01-24T03:39:03.413Z,1004.75
2019-01-24T03:39:43.977Z,1004.78
2019-01-24T03:40:24.505Z,1004.76
2019-01-24T03:41:05.088Z,1004.75
2019-01-24T03:41:45.620Z,1004.77
2019-01-24T03:42:26.166Z,1004.76
2019-01-24T03:43:06.773Z,1004.76
2019-01-24T03:43:47.333Z,1004.76
2019-01-24T03:44:27.886Z,1004.7
2019-01-24T03:45:08.433Z,1004.75
2019-01-24T03:45:48.995Z,1004.78
2019-01-24T03:46:29.539Z,1004.82
2019-01-24T03:47:10.101Z,1004.83
2019-01-24T03:47:50.663Z,1004.83
2019-01-24T03:48:31.210Z,1004.84
2019-01-24T03:49:11.769Z,1004.78
2019-01-24T03:49:52.335Z,1004.82
2019-01-24T03:50:32.878Z,1004.84
2019-01-24T03:51:13.424Z,1004.83
2019-01-24T03:51:53.977Z,1004.84
2019-01-24T03:52:34.528Z,1004.85
2019-01-24T03:53:15.087Z,1004.86
2019-01-24T03:53:55.700Z,1004.88
2019-01-24T03:54:36.261Z,1004.86
2019-01-24T03:55:16.800Z,1004.85
2019-01-24T03:55:57.366Z,1004.91
2019-01-24T03:56:37.928Z,1004.85
2019-01-24T03:57:18.478Z,1004.89
2019-01-24T03:57:59.025Z,1004.88
2019-01-24T03:58:39.573Z,1004.92
2019-01-24T03:59:20.138Z,1004.92
2019-01-24T04:00:00.685Z,1004.94
2019-01-24T04:00:41.219Z,1004.9
2019-01-24T04:01:21.783Z,1004.9
2019-01-24T04:02:02.327Z,1004.92
2019-01-24T04:02:42.927Z,1004.9
2019-01-24T04:03:23.476Z,1004.9
2019-01-24T04:04:04.038Z,1004.88
2019-01-24T04:04:44.591Z,1004.93
2019-01-24T04:05:25.151Z,1004.92
2019-01-24T04:06:05.719Z,1004.93
2019-01-24T04:06:46.299Z,1004.89
2019-01-24T04:07:26.843Z,1004.9
2019-01-24T04:08:07.374Z,1004.91
2019-01-24T04:08:47.938Z,1004.87
2019-01-24T04:09:28.492Z,1004.89
2019-01-24T04:10:09.050Z,1004.87
2019-01-24T04:10:49.594Z,1004.87
2019-01-24T04:11:30.208Z,1004.88
2019-01-24T04:12:10.762Z,1004.93
2019-01-24T04:12:51.323Z,1004.96
2019-01-24T04:13:31.904Z,1004.95
2019-01-24T04:14:12.460Z,1004.95
2019-01-24T04:14:53.010Z,1004.88
2019-01-24T04:15:33.649Z,1004.93
2019-01-24T04:16:14.169Z,1004.95
2019-01-24T04:16:54.732Z,1004.94
2019-01-24T04:17:35.267Z,1004.91
2019-01-24T04:18:16.726Z,1004.97
2019-01-24T04:18:57.285Z,1004.93
2019-01-24T04:19:37.834Z,1004.94
2019-01-24T04:20:18.433Z,1004.93
2019-01-24T04:20:58.989Z,1005
2019-01-24T04:21:39.560Z,1004.95
2019-01-24T04:22:20.106Z,1004.97
2019-01-24T04:23:00.663Z,1004.98
2019-01-24T04:23:41.224Z,1004.99
2019-01-24T04:24:21.783Z,1004.97
2019-01-24T04:25:02.354Z,1005
2019-01-24T04:25:42.909Z,1005
2019-01-24T04:26:23.465Z,1005
2019-01-24T04:27:04.037Z,1005.02
2019-01-24T04:27:44.609Z,1005.03
2019-01-24T04:28:25.158Z,1005.01
2019-01-24T04:29:05.716Z,1005
2019-01-24T04:29:46.270Z,1005.01
2019-01-24T04:30:26.837Z,1005.04
2019-01-24T04:31:07.404Z,1005.01
2019-01-24T04:31:47.955Z,1005.01
2019-01-24T04:32:28.520Z,1005.05
2019-01-24T04:33:09.088Z,1005.06
2019-01-24T04:33:49.644Z,1005.02
2019-01-24T04:34:30.206Z,1005.05
2019-01-24T04:35:10.757Z,1005.01
2019-01-24T04:35:51.322Z,1005.04
2019-01-24T04:36:31.880Z,1005.03
2019-01-24T04:37:12.434Z,1005.02
2019-01-24T04:37:52.990Z,1005
2019-01-24T04:38:33.544Z,1005
2019-01-24T04:39:14.100Z,1004.95
2019-01-24T04:39:54.656Z,1004.98
2019-01-24T04:40:35.213Z,1005
2019-01-24T04:41:15.777Z,1005
2019-01-24T04:41:56.341Z,1005.02
2019-01-24T04:42:36.883Z,1005
2019-01-24T04:43:17.454Z,1005.04
2019-01-24T04:43:58.037Z,1004.97
2019-01-24T04:44:38.583Z,1005.01
2019-01-24T04:45:19.130Z,1005.01
2019-01-24T04:45:59.703Z,1004.99
2019-01-24T04:46:40.251Z,1005.06
2019-01-24T04:47:20.795Z,1005
2019-01-24T04:48:01.375Z,1005
2019-01-24T04:48:41.937Z,1005.02
2019-01-24T04:49:22.499Z,1005.04
2019-01-24T04:50:03.057Z,1005.05
2019-01-24T04:50:43.613Z,1005.02
2019-01-24T04:51:24.152Z,1005.07
2019-01-24T04:52:04.766Z,1005.06
2019-01-24T04:52:45.341Z,1005.1
2019-01-24T04:53:25.885Z,1005.11
2019-01-24T04:54:06.460Z,1005.19
2019-01-24T04:54:46.994Z,1005.14
2019-01-24T04:55:27.555Z,1005.16
2019-01-24T04:56:08.133Z,1005.21
2019-01-24T04:56:48.676Z,1005.18
2019-01-24T04:57:29.228Z,1005.24
2019-01-24T04:58:09.797Z,1005.26
2019-01-24T04:58:50.358Z,1005.27
2019-01-24T04:59:30.913Z,1005.27
2019-01-24T05:00:11.466Z,1005.33
2019-01-24T05:00:52.035Z,1005.28
2019-01-24T05:01:32.604Z,1005.3
2019-01-24T05:02:13.184Z,1005.28
2019-01-24T05:02:53.722Z,1005.34
2019-01-24T05:03:34.271Z,1005.29
2019-01-24T05:04:14.833Z,1005.29
2019-01-24T05:04:55.394Z,1005.33
2019-01-24T05:05:35.957Z,1005.32
2019-01-24T05:06:16.546Z,1005.34
2019-01-24T05:06:57.125Z,1005.27
2019-01-24T05:07:37.737Z,1005.25
2019-01-24T05:08:18.507Z,1005.32
2019-01-24T05:08:59.082Z,1005.33
2019-01-24T05:09:39.648Z,1005.4
2019-01-24T05:10:20.213Z,1005.4
2019-01-24T05:11:00.787Z,1005.38
2019-01-24T05:11:41.338Z,1005.38
2019-01-24T05:12:21.937Z,1005.41
2019-01-24T05:13:02.479Z,1005.42
2019-01-24T05:13:43.067Z,1005.38
2019-01-24T05:14:23.654Z,1005.41
2019-01-24T05:15:04.205Z,1005.43
2019-01-24T05:15:44.761Z,1005.46
2019-01-24T05:16:25.319Z,1005.38
2019-01-24T05:17:05.890Z,1005.44
2019-01-24T05:17:46.445Z,1005.42
2019-01-24T05:18:27.040Z,1005.46
2019-01-24T05:19:07.612Z,1005.42
2019-01-24T05:19:48.189Z,1005.42
2019-01-24T05:20:28.746Z,1005.43
2019-01-24T05:21:09.308Z,1005.41
2019-01-24T05:21:49.858Z,1005.37
2019-01-24T05:22:30.440Z,1005.43
2019-01-24T05:23:11.000Z,1005.44
2019-01-24T05:23:51.568Z,1005.43
2019-01-24T05:24:32.121Z,1005.39
2019-01-24T05:25:12.719Z,1005.39
2019-01-24T05:25:53.274Z,1005.41
2019-01-24T05:26:33.825Z,1005.42
2019-01-24T05:27:14.380Z,1005.39
2019-01-24T05:27:54.923Z,1005.41
2019-01-24T05:28:35.503Z,1005.37
2019-01-24T05:29:16.069Z,1005.39
2019-01-24T05:29:56.619Z,1005.39
2019-01-24T05:30:37.195Z,1005.38
2019-01-24T05:31:17.745Z,1005.41
2019-01-24T05:31:58.294Z,1005.41
2019-01-24T05:32:38.860Z,1005.43
2019-01-24T05:33:19.424Z,1005.4
2019-01-24T05:33:59.978Z,1005.47
2019-01-24T05:34:40.531Z,1005.48
2019-01-24T05:35:21.077Z,1005.51
2019-01-24T05:36:01.670Z,1005.49
2019-01-24T05:36:42.223Z,1005.47
2019-01-24T05:37:22.790Z,1005.45
2019-01-24T05:38:03.338Z,1005.47
2019-01-24T05:38:43.894Z,1005.5
2019-01-24T05:39:24.471Z,1005.48
2019-01-24T05:40:05.017Z,1005.45
2019-01-24T05:40:45.551Z,1005.48
2019-01-24T05:41:26.108Z,1005.48
2019-01-24T05:42:06.661Z,1005.49
2019-01-24T05:42:47.272Z,1005.46
2019-01-24T05:43:27.823Z,1005.47
2019-01-24T05:44:08.404Z,1005.48
2019-01-24T05:44:48.958Z,1005.47
2019-01-24T05:45:29.517Z,1005.5
2019-01-24T05:46:10.136Z,1005.53
2019-01-24T05:46:50.694Z,1005.5
2019-01-24T05:47:31.245Z,1005.54
2019-01-24T05:48:11.889Z,1005.52
2019-01-24T05:48:52.573Z,1005.56
2019-01-24T05:49:33.089Z,1005.61
2019-01-24T05:50:13.883Z,1005.62
2019-01-24T05:50:54.587Z,1005.59
2019-01-24T05:51:35.170Z,1005.6
2019-01-24T05:52:19.530Z,1005.61
2019-01-24T05:52:56.314Z,1005.61
2019-01-24T05:53:36.865Z,1005.6
2019-01-24T05:54:17.443Z,1005.6
2019-01-24T05:54:57.966Z,1005.57
2019-01-24T05:55:38.501Z,1005.62
2019-01-24T05:56:19.295Z,1005.57
2019-01-24T05:57:00.353Z,1005.58
2019-01-24T05:57:41.096Z,1005.58
2019-01-24T05:58:21.657Z,1005.63
2019-01-24T05:59:02.233Z,1005.66
2019-01-24T05:59:42.818Z,1005.62
2019-01-24T06:00:23.383Z,1005.64
2019-01-24T06:01:03.935Z,1005.63
2019-01-24T06:01:44.499Z,1005.62
2019-01-24T06:02:25.072Z,1005.66
2019-01-24T06:03:05.632Z,1005.57
2019-01-24T06:03:46.193Z,1005.61
2019-01-24T06:04:26.780Z,1005.62
2019-01-24T06:05:07.322Z,1005.61
2019-01-24T06:05:47.874Z,1005.6
2019-01-24T06:06:28.423Z,1005.59
2019-01-24T06:07:08.995Z,1005.64
2019-01-24T06:07:49.573Z,1005.69
2019-01-24T06:08:30.106Z,1005.63
2019-01-24T06:09:10.668Z,1005.63
2019-01-24T06:09:51.254Z,1005.64
2019-01-24T06:10:31.816Z,1005.69
2019-01-24T06:11:12.425Z,1005.7
2019-01-24T06:11:53.030Z,1005.68
2019-01-24T06:12:33.555Z,1005.71
2019-01-24T06:13:14.126Z,1005.73
2019-01-24T06:13:54.713Z,1005.72
2019-01-24T06:14:35.268Z,1005.72
2019-01-24T06:15:15.830Z,1005.73
2019-01-24T06:15:56.370Z,1005.72
2019-01-24T06:16:36.930Z,1005.78
2019-01-24T06:17:17.492Z,1005.74
2019-01-24T06:17:58.053Z,1005.78
2019-01-24T06:18:38.618Z,1005.78
2019-01-24T06:19:19.218Z,1005.82
2019-01-24T06:19:59.764Z,1005.82
2019-01-24T06:20:40.358Z,1005.77
2019-01-24T06:21:20.915Z,1005.83
2019-01-24T06:22:01.476Z,1005.83
2019-01-24T06:22:42.489Z,1005.82
2019-01-24T06:23:23.179Z,1005.83
2019-01-24T06:24:03.701Z,1005.82
2019-01-24T06:24:44.259Z,1005.83
2019-01-24T06:25:24.798Z,1005.86
2019-01-24T06:26:05.359Z,1005.85
2019-01-24T06:26:45.953Z,1005.9
2019-01-24T06:27:26.515Z,1005.88
2019-01-24T06:28:07.067Z,1005.92
2019-01-24T06:28:47.621Z,1005.89
2019-01-24T06:29:28.182Z,1005.92
2019-01-24T06:30:08.801Z,1005.93
2019-01-24T06:30:49.377Z,1005.92
2019-01-24T06:31:29.929Z,1005.91
2019-01-24T06:32:10.498Z,1005.96
2019-01-24T06:32:51.050Z,1005.92
2019-01-24T06:33:31.606Z,1005.96
2019-01-24T06:34:12.157Z,1005.96
2019-01-24T06:34:52.707Z,1006
2019-01-24T06:35:33.261Z,1005.95
2019-01-24T06:36:13.812Z,1005.96
2019-01-24T06:36:54.368Z,1005.98
2019-01-24T06:37:34.909Z,1005.97
2019-01-24T06:38:15.457Z,1005.99
2019-01-24T06:38:56.004Z,1005.94
2019-01-24T06:39:36.560Z,1006
2019-01-24T06:40:17.117Z,1005.93
2019-01-24T06:40:57.667Z,1005.99
2019-01-24T06:41:38.219Z,1006
2019-01-24T06:42:18.779Z,1005.98
2019-01-24T06:42:59.328Z,1006.02
2019-01-24T06:43:39.989Z,1006.01
2019-01-24T06:44:20.528Z,1006.03
2019-01-24T06:45:01.142Z,1006.04
2019-01-24T06:45:41.721Z,1006.05
2019-01-24T06:46:22.289Z,1006.05
2019-01-24T06:47:02.850Z,1006.07
2019-01-24T06:47:43.415Z,1006.07
2019-01-24T06:48:24.009Z,1006.08
2019-01-24T06:49:04.551Z,1006.1
2019-01-24T06:49:45.117Z,1006.08
2019-01-24T06:50:25.675Z,1006.11
2019-01-24T06:51:06.246Z,1006.06
2019-01-24T06:51:46.835Z,1006.11
2019-01-24T06:52:27.399Z,1006.08
2019-01-24T06:53:07.965Z,1006.13
2019-01-24T06:53:48.518Z,1006.13
2019-01-24T06:54:29.088Z,1006.17
2019-01-24T06:55:09.623Z,1006.17
2019-01-24T06:55:50.194Z,1006.15
2019-01-24T06:56:30.737Z,1006.19
2019-01-24T06:57:11.298Z,1006.21
2019-01-24T06:57:51.869Z,1006.18
2019-01-24T06:58:32.437Z,1006.2
2019-01-24T06:59:13.026Z,1006.2
2019-01-24T06:59:53.595Z,1006.25
2019-01-24T07:00:34.183Z,1006.25
2019-01-24T07:01:14.898Z,1006.2
2019-01-24T07:01:55.463Z,1006.23
2019-01-24T07:04:23.518Z,1006.21
2019-01-24T07:05:04.146Z,1006.28
2019-01-24T07:05:44.906Z,1006.29
2019-01-24T07:06:25.316Z,1006.33
2019-01-24T07:07:06.155Z,1006.32
2019-01-24T07:07:46.831Z,1006.23
2019-01-24T07:08:27.415Z,1006.27
2019-01-24T07:09:08.004Z,1006.24
2019-01-24T07:09:48.602Z,1006.29
2019-01-24T07:10:29.166Z,1006.25
2019-01-24T07:11:09.729Z,1006.26
2019-01-24T07:11:50.322Z,1006.3
2019-01-24T07:12:30.947Z,1006.26
2019-01-24T07:13:11.500Z,1006.3
2019-01-24T07:13:52.053Z,1006.28
2019-01-24T07:14:32.612Z,1006.32
2019-01-24T07:15:13.398Z,1006.28
2019-01-24T07:15:54.313Z,1006.25
2019-01-24T07:16:34.877Z,1006.35
2019-01-24T07:17:15.467Z,1006.29
2019-01-24T07:17:56.053Z,1006.39
2019-01-24T07:18:36.598Z,1006.31
2019-01-24T07:19:17.244Z,1006.37
2019-01-24T07:19:57.805Z,1006.38
2019-01-24T07:20:38.378Z,1006.38
2019-01-24T07:21:18.927Z,1006.4
2019-01-24T07:21:59.591Z,1006.39
2019-01-24T07:22:40.423Z,1006.41
2019-01-24T07:23:21.003Z,1006.38
2019-01-24T07:24:01.584Z,1006.44
2019-01-24T07:24:42.183Z,1006.37
2019-01-24T07:25:22.722Z,1006.39
2019-01-24T07:26:03.281Z,1006.35
2019-01-24T07:26:43.918Z,1006.39
2019-01-24T07:27:24.490Z,1006.39
2019-01-24T07:28:05.079Z,1006.39
2019-01-24T07:28:45.686Z,1006.39
2019-01-24T07:29:28.178Z,1006.34
2019-01-24T07:30:08.747Z,1006.39
2019-01-24T07:30:49.329Z,1006.39
2019-01-24T07:31:30.128Z,1006.38
2019-01-24T07:32:10.698Z,1006.4
2019-01-24T07:32:51.237Z,1006.37
2019-01-24T07:33:31.789Z,1006.44
2019-01-24T07:34:12.347Z,1006.44
2019-01-24T07:34:52.930Z,1006.4
2019-01-24T07:35:33.513Z,1006.42
2019-01-24T07:36:14.094Z,1006.44
2019-01-24T07:36:54.701Z,1006.43
2019-01-24T07:37:35.271Z,1006.45
2019-01-24T07:38:15.845Z,1006.42
2019-01-24T07:38:56.454Z,1006.42
2019-01-24T07:39:37.008Z,1006.46
2019-01-24T07:40:17.606Z,1006.46
2019-01-24T07:40:58.254Z,1006.47
2019-01-24T07:41:38.799Z,1006.5
2019-01-24T07:42:19.395Z,1006.55
2019-01-24T07:43:00.074Z,1006.52
2019-01-24T07:43:40.630Z,1006.5
2019-01-24T07:44:21.188Z,1006.56
2019-01-24T07:45:01.809Z,1006.53
2019-01-24T07:45:42.347Z,1006.55
2019-01-24T07:46:22.960Z,1006.57
2019-01-24T07:47:03.566Z,1006.65
2019-01-24T07:47:44.115Z,1006.64
2019-01-24T07:48:24.703Z,1006.62
2019-01-24T07:49:05.271Z,1006.64
2019-01-24T07:49:45.847Z,1006.69
2019-01-24T07:50:26.434Z,1006.68
2019-01-24T07:51:07.032Z,1006.68
2019-01-24T07:51:47.627Z,1006.69
2019-01-24T07:52:28.171Z,1006.73
2019-01-24T07:53:08.712Z,1006.78
2019-01-24T07:53:49.273Z,1006.75
2019-01-24T07:54:29.839Z,1006.74
2019-01-24T07:55:10.859Z,1006.76
2019-01-24T07:55:51.011Z,1006.72
2019-01-24T07:56:31.562Z,1006.76
2019-01-24T07:57:12.119Z,1006.73
2019-01-24T07:57:52.669Z,1006.76
2019-01-24T07:58:33.219Z,1006.76
2019-01-24T07:59:13.787Z,1006.73
2019-01-24T07:59:54.444Z,1006.75
2019-01-24T08:00:35.171Z,1006.79
2019-01-24T08:01:16.027Z,1006.81
2019-01-24T08:01:56.580Z,1006.76
2019-01-24T08:02:37.143Z,1006.76
2019-01-24T08:03:17.721Z,1006.77
2019-01-24T08:03:58.278Z,1006.75
2019-01-24T08:04:38.862Z,1006.75
2019-01-24T08:05:19.410Z,1006.73
2019-01-24T08:05:59.959Z,1006.76
2019-01-24T08:06:40.520Z,1006.72
2019-01-24T08:07:21.107Z,1006.73
2019-01-24T08:08:01.674Z,1006.69
2019-01-24T08:08:42.707Z,1006.74
2019-01-24T08:09:23.259Z,1006.69
2019-01-24T08:10:03.986Z,1006.73
2019-01-24T08:10:44.554Z,1006.71
2019-01-24T08:11:25.103Z,1006.65
2019-01-24T08:12:05.672Z,1006.77
2019-01-24T08:12:46.264Z,1006.74
2019-01-24T08:13:26.820Z,1006.72
2019-01-24T08:14:07.412Z,1006.76
2019-01-24T08:14:47.979Z,1006.71
2019-01-24T08:15:29.217Z,1006.72
2019-01-24T08:16:09.070Z,1006.74
2019-01-24T08:16:49.734Z,1006.72
2019-01-24T08:17:30.287Z,1006.72
2019-01-24T08:18:10.853Z,1006.74
2019-01-24T08:18:51.438Z,1006.81
2019-01-24T08:19:32.031Z,1006.76